createdAt,value
2018-04-15T00:01:14.566Z,15.51
2018-04-15T00:02:14.581Z,15.61
2018-04-15T00:04:09.069Z,15.48
2018-04-15T00:05:09.060Z,15.54
2018-04-15T00:07:02.551Z,15.56
2018-04-15T00:08:02.543Z,15.51
2018-04-15T00:09:57.022Z,15.66
2018-04-15T00:10:57.020Z,15.56
2018-04-15T00:12:51.498Z,15.56
2018-04-15T00:13:51.502Z,15.45
2018-04-15T00:15:45.972Z,15.36
2018-04-15T00:16:45.966Z,15.21
2018-04-15T00:18:39.447Z,14.88
2018-04-15T00:19:39.453Z,14.87
2018-04-15T00:21:32.942Z,15.05
2018-04-15T00:22:32.943Z,15.17
2018-04-15T00:24:26.504Z,15.26
2018-04-15T00:25:26.441Z,14.84
2018-04-15T00:27:21.031Z,14.52
2018-04-15T00:28:21.020Z,14.68
2018-04-15T00:30:16.019Z,15.03
2018-04-15T00:31:15.513Z,14.99
2018-04-15T00:33:08.988Z,15.13
2018-04-15T00:34:08.993Z,14.91
2018-04-15T00:36:02.470Z,15.24
2018-04-15T00:37:02.472Z,15.28
2018-04-15T00:38:55.965Z,15.17
2018-04-15T00:39:55.947Z,15.26
2018-04-15T00:41:49.429Z,15.33
2018-04-15T00:42:49.498Z,15.33
2018-04-15T00:44:43.904Z,15.45
2018-04-15T00:45:43.906Z,15.38
2018-04-15T00:47:37.483Z,15.36
2018-04-15T00:48:37.381Z,15.38
2018-04-15T00:50:30.926Z,15.45
2018-04-15T00:51:30.916Z,15.36
2018-04-15T00:53:24.391Z,15.43
2018-04-15T00:54:24.401Z,15.39
2018-04-15T00:56:18.861Z,15.19
2018-04-15T00:57:18.889Z,14.91
2018-04-15T00:59:13.349Z,15.03
2018-04-15T01:00:13.327Z,15.11
2018-04-15T01:02:07.877Z,14.94
2018-04-15T01:03:07.878Z,15.01
2018-04-15T01:05:01.349Z,15.08
2018-04-15T01:06:01.355Z,15.05
2018-04-15T01:07:54.849Z,15.20
2018-04-15T01:08:54.836Z,15.12
2018-04-15T01:10:48.347Z,15.03
2018-04-15T01:11:48.355Z,14.98
2018-04-15T01:13:43.133Z,14.75
2018-04-15T01:14:43.151Z,14.81
2018-04-15T01:16:36.624Z,15.03
2018-04-15T01:17:36.616Z,14.95
2018-04-15T01:19:30.610Z,14.91
2018-04-15T01:20:30.105Z,14.93
2018-04-15T01:22:23.583Z,14.90
2018-04-15T01:23:23.575Z,14.81
2018-04-15T01:25:17.059Z,14.78
2018-04-15T01:26:17.055Z,14.75
2018-04-15T01:28:11.540Z,14.16
2018-04-15T01:29:11.530Z,14.09
2018-04-15T01:31:06.001Z,13.88
2018-04-15T01:32:06.000Z,14.01
2018-04-15T01:33:59.481Z,14.42
2018-04-15T01:34:59.480Z,14.44
2018-04-15T01:36:54.005Z,14.60
2018-04-15T01:37:54.027Z,14.68
2018-04-15T01:39:48.472Z,14.67
2018-04-15T01:40:48.473Z,14.68
2018-04-15T01:42:41.953Z,14.80
2018-04-15T01:43:41.948Z,14.78
2018-04-15T01:45:36.469Z,14.78
2018-04-15T01:46:36.462Z,14.78
2018-04-15T01:48:29.965Z,14.88
2018-04-15T01:49:29.957Z,14.91
2018-04-15T01:51:23.437Z,15.02
2018-04-15T01:52:23.447Z,14.87
2018-04-15T01:54:16.942Z,14.99
2018-04-15T01:55:16.933Z,14.91
2018-04-15T01:57:10.409Z,14.78
2018-04-15T01:58:10.447Z,14.84
2018-04-15T02:00:03.893Z,14.84
2018-04-15T02:01:03.903Z,14.84
2018-04-15T02:02:58.345Z,15.01
2018-04-15T02:03:58.339Z,15.01
2018-04-15T02:05:52.949Z,15.08
2018-04-15T02:06:52.816Z,15.09
2018-04-15T02:08:46.296Z,15.02
2018-04-15T02:09:46.287Z,15.01
2018-04-15T02:11:41.748Z,15.08
2018-04-15T02:12:41.756Z,15.17
2018-04-15T02:14:36.207Z,15.06
2018-04-15T02:15:36.205Z,14.90
2018-04-15T02:17:30.681Z,14.94
2018-04-15T02:18:30.731Z,15.06
2018-04-15T02:20:24.156Z,15.08
2018-04-15T02:21:24.153Z,15.03
2018-04-15T02:23:17.733Z,15.08
2018-04-15T02:24:17.635Z,15.03
2018-04-15T02:26:11.115Z,15.02
2018-04-15T02:27:11.110Z,15.03
2018-04-15T02:29:04.602Z,14.91
2018-04-15T02:30:04.590Z,14.74
2018-04-15T02:31:58.078Z,14.87
2018-04-15T02:32:58.078Z,14.95
2018-04-15T02:34:51.626Z,15.05
2018-04-15T02:35:51.625Z,15.03
2018-04-15T02:37:45.113Z,15.02
2018-04-15T02:38:45.120Z,15.05
2018-04-15T02:40:38.591Z,14.99
2018-04-15T02:41:38.593Z,15.05
2018-04-15T02:43:33.074Z,14.98
2018-04-15T02:44:33.090Z,15.03
2018-04-15T02:46:28.541Z,14.91
2018-04-15T02:47:28.540Z,14.88
2018-04-15T02:49:23.545Z,14.80
2018-04-15T02:50:23.331Z,14.75
2018-04-15T02:52:18.335Z,14.75
2018-04-15T02:53:17.794Z,14.74
2018-04-15T02:55:12.294Z,14.74
2018-04-15T02:56:12.287Z,14.64
2018-04-15T02:58:05.753Z,14.83
2018-04-15T02:59:05.751Z,14.86
2018-04-15T03:01:00.219Z,14.83
2018-04-15T03:02:00.217Z,14.68
2018-04-15T03:03:53.704Z,14.83
2018-04-15T03:04:53.715Z,14.95
2018-04-15T03:06:48.170Z,15.03
2018-04-15T03:07:48.170Z,15.06
2018-04-15T03:08:48.195Z,15.05
2018-04-15T03:09:48.221Z,14.71
2018-04-15T03:10:48.236Z,14.87
2018-04-15T03:11:48.255Z,14.99
2018-04-15T03:12:48.284Z,15.03
2018-04-15T03:13:48.303Z,14.91
2018-04-15T03:14:48.325Z,14.68
2018-04-15T03:15:48.344Z,14.69
2018-04-15T03:16:48.383Z,14.81
2018-04-15T03:17:48.388Z,14.91
2018-04-15T03:18:48.405Z,14.71
2018-04-15T03:19:48.434Z,14.93
2018-04-15T03:20:48.454Z,15.02
2018-04-15T03:21:48.471Z,15.06
2018-04-15T03:22:48.496Z,14.94
2018-04-15T03:23:48.517Z,15.03
2018-04-15T03:24:48.536Z,14.93
2018-04-15T03:25:48.559Z,15.05
2018-04-15T03:26:48.595Z,14.84
2018-04-15T03:27:48.608Z,14.90
2018-04-15T03:28:48.630Z,14.75
2018-04-15T03:29:48.648Z,14.81
2018-04-15T03:30:48.689Z,14.87
2018-04-15T03:31:48.689Z,14.98
2018-04-15T03:32:48.712Z,14.69
2018-04-15T03:33:48.734Z,14.84
2018-04-15T03:34:48.754Z,15.01
2018-04-15T03:35:48.778Z,14.64
2018-04-15T03:36:48.800Z,14.86
2018-04-15T03:37:48.827Z,14.56
2018-04-15T03:38:48.847Z,14.69
2018-04-15T03:39:48.863Z,14.65
2018-04-15T03:40:48.885Z,14.80
2018-04-15T03:41:48.909Z,14.94
2018-04-15T03:42:48.932Z,14.87
2018-04-15T03:43:48.951Z,14.74
2018-04-15T03:44:48.973Z,14.87
2018-04-15T03:45:48.994Z,15.13
2018-04-15T03:46:49.056Z,15.02
2018-04-15T03:47:49.038Z,14.98
2018-04-15T03:48:49.063Z,14.74
2018-04-15T03:49:49.080Z,14.83
2018-04-15T03:50:49.101Z,14.90
2018-04-15T03:51:49.142Z,14.95
2018-04-15T03:52:49.145Z,14.71
2018-04-15T03:53:49.162Z,14.80
2018-04-15T03:54:49.192Z,14.98
2018-04-15T03:55:49.213Z,15.01
2018-04-15T03:56:49.230Z,15.01
2018-04-15T03:57:49.256Z,15.13
2018-04-15T03:58:49.285Z,14.87
2018-04-15T03:59:49.301Z,14.84
2018-04-15T04:00:49.318Z,14.80
2018-04-15T04:01:49.344Z,14.88
2018-04-15T04:02:49.362Z,15.09
2018-04-15T04:03:49.387Z,15.02
2018-04-15T04:04:49.405Z,15.09
2018-04-15T04:05:49.431Z,14.90
2018-04-15T04:06:49.471Z,15.13
2018-04-15T04:07:49.472Z,14.91
2018-04-15T04:08:49.492Z,14.95
2018-04-15T04:09:49.519Z,14.99
2018-04-15T04:10:49.540Z,14.91
2018-04-15T04:11:49.558Z,14.72
2018-04-15T04:12:49.576Z,14.95
2018-04-15T04:13:49.604Z,15.01
2018-04-15T04:14:49.617Z,15.03
2018-04-15T04:15:49.644Z,15.13
2018-04-15T04:16:49.670Z,15.24
2018-04-15T04:17:49.686Z,15.20
2018-04-15T04:18:49.708Z,15.09
2018-04-15T04:19:49.730Z,14.94
2018-04-15T04:20:49.761Z,15.08
2018-04-15T04:21:49.775Z,15.08
2018-04-15T04:22:49.805Z,15.11
2018-04-15T04:23:49.817Z,15.02
2018-04-15T04:24:49.842Z,15.13
2018-04-15T04:25:49.860Z,15.13
2018-04-15T04:26:49.882Z,15.11
2018-04-15T04:27:49.905Z,15.09
2018-04-15T04:28:49.924Z,14.94
2018-04-15T04:29:49.946Z,15.19
2018-04-15T04:30:49.971Z,15.02
2018-04-15T04:31:49.997Z,14.91
2018-04-15T04:32:50.013Z,14.98
2018-04-15T04:33:50.039Z,14.91
2018-04-15T04:34:50.055Z,14.93
2018-04-15T04:35:50.136Z,15.11
2018-04-15T04:36:50.098Z,14.86
2018-04-15T04:37:50.121Z,14.80
2018-04-15T04:38:50.143Z,14.81
2018-04-15T04:39:50.164Z,14.94
2018-04-15T04:40:50.186Z,14.67
2018-04-15T04:41:50.210Z,14.74
2018-04-15T04:42:50.231Z,14.60
2018-04-15T04:43:50.250Z,14.74
2018-04-15T04:44:50.272Z,14.80
2018-04-15T04:45:50.297Z,14.78
2018-04-15T04:46:50.324Z,14.72
2018-04-15T04:47:50.371Z,14.44
2018-04-15T04:48:50.357Z,14.50
2018-04-15T04:49:50.391Z,14.74
2018-04-15T04:50:50.430Z,14.86
2018-04-15T04:51:50.428Z,14.80
2018-04-15T04:52:50.448Z,14.72
2018-04-15T04:53:50.468Z,14.64
2018-04-15T04:54:50.494Z,14.61
2018-04-15T04:55:50.514Z,14.61
2018-04-15T04:56:50.535Z,14.44
2018-04-15T04:57:50.558Z,14.47
2018-04-15T04:58:50.576Z,14.57
2018-04-15T04:59:50.600Z,14.80
2018-04-15T05:00:50.629Z,14.72
2018-04-15T05:01:50.636Z,14.64
2018-04-15T05:02:50.663Z,14.57
2018-04-15T05:03:50.689Z,14.72
2018-04-15T05:04:50.711Z,14.68
2018-04-15T05:05:50.724Z,14.99
2018-04-15T05:06:50.754Z,14.90
2018-04-15T05:07:50.774Z,14.81
2018-04-15T05:08:50.807Z,14.87
2018-04-15T05:09:50.817Z,15.01
2018-04-15T05:10:50.844Z,15.08
2018-04-15T05:11:50.862Z,15.08
2018-04-15T05:12:50.879Z,15.05
2018-04-15T05:13:50.906Z,15.20
2018-04-15T05:14:50.925Z,15.19
2018-04-15T05:15:50.942Z,15.13
2018-04-15T05:16:50.963Z,15.23
2018-04-15T05:17:50.994Z,14.91
2018-04-15T05:18:51.009Z,14.93
2018-04-15T05:19:51.033Z,14.80
2018-04-15T05:20:51.055Z,14.72
2018-04-15T05:21:51.073Z,14.81
2018-04-15T05:22:51.098Z,15.06
2018-04-15T05:23:51.150Z,15.15
2018-04-15T05:24:51.170Z,15.06
2018-04-15T05:25:51.163Z,14.88
2018-04-15T05:26:51.184Z,15.02
2018-04-15T05:27:51.218Z,15.02
2018-04-15T05:28:51.226Z,14.91
2018-04-15T05:29:51.257Z,14.99
2018-04-15T05:30:51.273Z,15.06
2018-04-15T05:31:51.294Z,15.12
2018-04-15T05:32:51.320Z,15.39
2018-04-15T05:33:51.338Z,15.28
2018-04-15T05:34:51.366Z,15.38
2018-04-15T05:35:51.382Z,15.43
2018-04-15T05:36:51.403Z,15.54
2018-04-15T05:37:51.431Z,15.39
2018-04-15T05:38:51.454Z,15.24
2018-04-15T05:39:51.476Z,15.31
2018-04-15T05:40:51.488Z,15.31
2018-04-15T05:41:51.512Z,15.13
2018-04-15T05:42:51.536Z,15.06
2018-04-15T05:43:51.555Z,15.03
2018-04-15T05:44:51.584Z,15.23
2018-04-15T05:45:51.605Z,15.21
2018-04-15T05:46:51.621Z,15.36
2018-04-15T05:47:51.649Z,15.05
2018-04-15T05:48:51.687Z,15.03
2018-04-15T05:49:51.703Z,14.93
2018-04-15T05:50:51.709Z,14.87
2018-04-15T05:51:51.731Z,14.78
2018-04-15T05:52:51.759Z,14.91
2018-04-15T05:53:51.817Z,14.91
2018-04-15T05:54:51.797Z,14.91
2018-04-15T05:55:51.824Z,14.90
2018-04-15T05:56:51.876Z,14.86
2018-04-15T05:57:51.861Z,14.88
2018-04-15T05:58:51.888Z,14.90
2018-04-15T05:59:51.912Z,14.99
2018-04-15T06:00:51.930Z,14.99
2018-04-15T06:01:51.985Z,15.21
2018-04-15T06:02:51.975Z,15.38
2018-04-15T06:03:51.994Z,15.38
2018-04-15T06:04:52.023Z,15.24
2018-04-15T06:05:52.047Z,15.13
2018-04-15T06:06:52.069Z,15.12
2018-04-15T06:07:52.093Z,15.09
2018-04-15T06:08:52.120Z,15.05
2018-04-15T06:09:52.134Z,14.99
2018-04-15T06:10:52.159Z,15.03
2018-04-15T06:11:52.176Z,15.13
2018-04-15T06:12:52.198Z,15.24
2018-04-15T06:13:52.279Z,15.43
2018-04-15T06:14:52.281Z,15.27
2018-04-15T06:15:52.270Z,15.30
2018-04-15T06:16:52.287Z,15.36
2018-04-15T06:17:52.308Z,15.38
2018-04-15T06:18:52.336Z,15.41
2018-04-15T06:19:52.356Z,15.54
2018-04-15T06:20:52.378Z,15.54
2018-04-15T06:21:52.396Z,15.70
2018-04-15T06:22:52.441Z,15.79
2018-04-15T06:23:52.445Z,15.70
2018-04-15T06:24:52.463Z,15.76
2018-04-15T06:25:52.489Z,15.56
2018-04-15T06:26:52.515Z,15.67
2018-04-15T06:27:52.532Z,15.64
2018-04-15T06:28:52.551Z,15.68
2018-04-15T06:29:52.579Z,15.81
2018-04-15T06:30:52.604Z,15.84
2018-04-15T06:31:52.619Z,15.89
2018-04-15T06:32:52.649Z,15.76
2018-04-15T06:33:52.671Z,15.82
2018-04-15T06:34:52.687Z,15.81
2018-04-15T06:35:52.740Z,15.76
2018-04-15T06:36:52.856Z,15.78
2018-04-15T06:37:52.762Z,15.94
2018-04-15T06:38:52.794Z,15.96
2018-04-15T06:39:52.802Z,16.14
2018-04-15T06:40:52.829Z,16.12
2018-04-15T06:41:52.842Z,16.03
2018-04-15T06:42:52.868Z,16.00
2018-04-15T06:43:52.898Z,16.22
2018-04-15T06:44:52.917Z,16.18
2018-04-15T06:45:52.937Z,16.11
2018-04-15T06:46:52.959Z,16.14
2018-04-15T06:47:53.004Z,16.16
2018-04-15T06:48:53.010Z,16.06
2018-04-15T06:49:53.028Z,15.96
2018-04-15T06:50:53.071Z,15.92
2018-04-15T06:51:53.074Z,15.97
2018-04-15T06:52:53.094Z,16.07
2018-04-15T06:53:53.211Z,16.18
2018-04-15T06:54:53.141Z,16.12
2018-04-15T06:55:53.165Z,15.94
2018-04-15T06:56:53.190Z,16.15
2018-04-15T06:57:53.211Z,16.34
2018-04-15T06:58:53.229Z,16.41
2018-04-15T06:59:53.258Z,16.31
2018-04-15T07:00:53.320Z,16.06
2018-04-15T07:01:53.318Z,16.12
2018-04-15T07:02:53.333Z,16.03
2018-04-15T07:03:53.349Z,16.00
2018-04-15T07:04:53.371Z,16.04
2018-04-15T07:05:53.392Z,15.92
2018-04-15T07:06:53.422Z,16.09
2018-04-15T07:07:53.449Z,16.15
2018-04-15T07:08:53.468Z,16.30
2018-04-15T07:09:53.493Z,16.37
2018-04-15T07:10:53.598Z,16.38
2018-04-15T07:11:53.536Z,16.27
2018-04-15T07:12:53.554Z,16.27
2018-04-15T07:13:53.578Z,16.18
2018-04-15T07:14:53.597Z,16.25
2018-04-15T07:15:53.626Z,16.18
2018-04-15T07:16:53.650Z,16.35
2018-04-15T07:17:53.670Z,16.49
2018-04-15T07:18:53.694Z,16.42
2018-04-15T07:19:53.716Z,16.26
2018-04-15T07:20:53.738Z,16.35
2018-04-15T07:21:53.776Z,16.22
2018-04-15T07:22:53.790Z,16.18
2018-04-15T07:23:53.851Z,16.20
2018-04-15T07:24:53.834Z,16.27
2018-04-15T07:25:53.859Z,16.18
2018-04-15T07:26:53.880Z,16.23
2018-04-15T07:27:54.122Z,16.23
2018-04-15T07:28:53.931Z,16.15
2018-04-15T07:29:53.954Z,16.12
2018-04-15T07:30:53.974Z,16.20
2018-04-15T07:31:54.026Z,16.09
2018-04-15T07:32:54.023Z,16.18
2018-04-15T07:33:54.050Z,16.38
2018-04-15T07:34:54.072Z,16.45
2018-04-15T07:35:54.093Z,16.33
2018-04-15T07:36:54.181Z,16.37
2018-04-15T07:37:54.145Z,16.37
2018-04-15T07:38:54.157Z,16.41
2018-04-15T07:39:54.185Z,16.48
2018-04-15T07:40:54.206Z,16.55
2018-04-15T07:41:54.231Z,16.73
2018-04-15T07:42:54.256Z,16.70
2018-04-15T07:43:54.273Z,16.73
2018-04-15T07:44:54.298Z,16.68
2018-04-15T07:45:54.325Z,16.77
2018-04-15T07:46:54.340Z,16.78
2018-04-15T07:47:54.373Z,16.90
2018-04-15T07:48:54.390Z,16.86
2018-04-15T07:49:54.417Z,17.00
2018-04-15T07:50:54.438Z,16.98
2018-04-15T07:51:54.460Z,17.13
2018-04-15T07:52:54.483Z,17.10
2018-04-15T07:53:54.507Z,16.93
2018-04-15T07:54:54.545Z,16.98
2018-04-15T07:55:54.553Z,16.98
2018-04-15T07:56:54.589Z,17.00
2018-04-15T07:57:54.603Z,17.10
2018-04-15T07:58:54.623Z,17.14
2018-04-15T07:59:54.643Z,17.13
2018-04-15T08:00:54.673Z,17.18
2018-04-15T08:01:54.695Z,17.23
2018-04-15T08:02:54.716Z,17.10
2018-04-15T08:03:54.742Z,17.03
2018-04-15T08:04:54.768Z,16.95
2018-04-15T08:05:54.789Z,17.03
2018-04-15T08:06:54.815Z,16.96
2018-04-15T08:07:54.837Z,17.15
2018-04-15T08:08:54.865Z,17.29
2018-04-15T08:09:54.885Z,17.18
2018-04-15T08:10:54.903Z,17.33
2018-04-15T08:11:54.932Z,17.43
2018-04-15T08:12:54.955Z,17.55
2018-04-15T08:13:54.980Z,17.36
2018-04-15T08:14:55.000Z,17.25
2018-04-15T08:15:55.021Z,17.26
2018-04-15T08:16:55.054Z,17.33
2018-04-15T08:17:55.073Z,17.29
2018-04-15T08:18:55.095Z,17.22
2018-04-15T08:19:55.121Z,17.29
2018-04-15T08:20:55.143Z,17.23
2018-04-15T08:21:55.177Z,17.17
2018-04-15T08:22:55.188Z,17.23
2018-04-15T08:23:55.218Z,17.18
2018-04-15T08:24:55.231Z,17.26
2018-04-15T08:25:55.258Z,17.13
2018-04-15T08:26:55.287Z,17.29
2018-04-15T08:27:55.310Z,17.13
2018-04-15T08:28:55.324Z,17.23
2018-04-15T08:29:55.358Z,17.29
2018-04-15T08:30:55.409Z,17.13
2018-04-15T08:31:55.400Z,17.14
2018-04-15T08:32:55.435Z,17.22
2018-04-15T08:33:55.444Z,17.14
2018-04-15T08:34:55.474Z,17.28
2018-04-15T08:35:55.500Z,17.30
2018-04-15T08:36:55.521Z,17.43
2018-04-15T08:37:55.547Z,17.28
2018-04-15T08:38:55.588Z,17.20
2018-04-15T08:39:55.606Z,17.26
2018-04-15T08:40:55.629Z,17.32
2018-04-15T08:41:55.663Z,17.28
2018-04-15T08:42:55.670Z,17.29
2018-04-15T08:43:55.686Z,17.23
2018-04-15T08:44:55.710Z,17.32
2018-04-15T08:45:55.734Z,17.32
2018-04-15T08:46:55.769Z,17.29
2018-04-15T08:47:55.785Z,17.30
2018-04-15T08:48:55.816Z,17.32
2018-04-15T08:49:55.831Z,17.33
2018-04-15T08:50:55.852Z,17.32
2018-04-15T08:51:55.877Z,17.28
2018-04-15T08:52:55.916Z,17.29
2018-04-15T08:53:55.937Z,17.25
2018-04-15T08:54:55.988Z,17.10
2018-04-15T08:55:55.983Z,17.13
2018-04-15T08:56:55.995Z,17.23
2018-04-15T08:57:56.027Z,17.28
2018-04-15T08:58:56.058Z,17.20
2018-04-15T08:59:56.064Z,17.17
2018-04-15T09:00:56.094Z,17.17
2018-04-15T09:01:56.120Z,17.10
2018-04-15T09:02:56.135Z,17.15
2018-04-15T09:03:56.169Z,17.29
2018-04-15T09:04:56.188Z,17.29
2018-04-15T09:05:56.221Z,17.30
2018-04-15T09:06:56.258Z,17.26
2018-04-15T09:07:56.262Z,17.25
2018-04-15T09:08:56.280Z,17.26
2018-04-15T09:09:56.307Z,17.23
2018-04-15T09:10:56.337Z,17.15
2018-04-15T09:11:56.349Z,17.33
2018-04-15T09:12:56.378Z,17.18
2018-04-15T09:13:56.409Z,17.23
2018-04-15T09:14:56.421Z,17.33
2018-04-15T09:15:56.452Z,17.33
2018-04-15T09:16:56.475Z,17.43
2018-04-15T09:17:56.517Z,17.46
2018-04-15T09:18:56.540Z,17.46
2018-04-15T09:19:56.554Z,17.57
2018-04-15T09:20:56.578Z,17.59
2018-04-15T09:21:56.593Z,17.54
2018-04-15T09:22:56.623Z,17.44
2018-04-15T09:23:56.634Z,17.51
2018-04-15T09:24:56.681Z,17.44
2018-04-15T09:25:56.695Z,17.55
2018-04-15T09:26:56.723Z,17.57
2018-04-15T09:27:56.733Z,17.71
2018-04-15T09:28:56.765Z,17.74
2018-04-15T09:29:56.786Z,17.69
2018-04-15T09:30:56.810Z,17.73
2018-04-15T09:31:56.833Z,17.84
2018-04-15T09:32:56.851Z,17.97
2018-04-15T09:33:56.879Z,17.94
2018-04-15T09:34:56.902Z,17.89
2018-04-15T09:35:56.984Z,18.03
2018-04-15T09:36:56.952Z,17.89
2018-04-15T09:37:56.971Z,17.84
2018-04-15T09:38:56.999Z,17.84
2018-04-15T09:39:57.030Z,17.79
2018-04-15T09:40:57.042Z,17.84
2018-04-15T09:41:57.064Z,17.91
2018-04-15T09:42:57.093Z,18.03
2018-04-15T09:43:57.129Z,18.03
2018-04-15T09:44:57.139Z,17.82
2018-04-15T09:45:57.161Z,17.85
2018-04-15T09:46:57.223Z,17.79
2018-04-15T09:47:57.207Z,17.97
2018-04-15T09:48:57.233Z,18.18
2018-04-15T09:49:57.256Z,18.07
2018-04-15T09:50:57.289Z,18.17
2018-04-15T09:51:57.306Z,18.27
2018-04-15T09:52:57.329Z,18.40
2018-04-15T09:53:57.363Z,18.39
2018-04-15T09:54:57.382Z,18.43
2018-04-15T09:55:57.408Z,18.49
2018-04-15T09:56:57.435Z,18.40
2018-04-15T09:57:57.449Z,18.36
2018-04-15T09:58:57.472Z,18.36
2018-04-15T09:59:57.495Z,18.21
2018-04-15T10:00:57.521Z,18.29
2018-04-15T10:01:57.550Z,18.37
2018-04-15T10:02:57.581Z,18.55
2018-04-15T10:03:57.608Z,18.61
2018-04-15T10:04:57.619Z,18.54
2018-04-15T10:05:57.648Z,18.46
2018-04-15T10:06:57.669Z,18.49
2018-04-15T10:07:57.693Z,18.44
2018-04-15T10:08:57.720Z,18.40
2018-04-15T10:09:57.753Z,18.28
2018-04-15T10:10:57.776Z,18.18
2018-04-15T10:11:57.788Z,18.25
2018-04-15T10:12:57.816Z,18.29
2018-04-15T10:13:57.845Z,18.12
2018-04-15T10:14:57.865Z,17.99
2018-04-15T10:15:57.898Z,18.02
2018-04-15T10:16:57.949Z,18.13
2018-04-15T10:17:57.944Z,18.76
2018-04-15T10:18:57.988Z,18.84
2018-04-15T10:19:58.017Z,18.76
2018-04-15T10:20:58.015Z,18.74
2018-04-15T10:21:58.041Z,18.67
2018-04-15T10:22:58.068Z,18.91
2018-04-15T10:23:58.174Z,18.82
2018-04-15T10:24:58.112Z,18.82
2018-04-15T10:25:58.138Z,18.95
2018-04-15T10:26:58.235Z,18.98
2018-04-15T10:27:58.185Z,18.99
2018-04-15T10:28:58.303Z,19.10
2018-04-15T10:29:58.232Z,19.02
2018-04-15T10:30:58.267Z,18.82
2018-04-15T10:31:58.293Z,18.74
2018-04-15T10:32:58.337Z,18.84
2018-04-15T10:33:58.332Z,19.01
2018-04-15T10:34:58.358Z,19.46
2018-04-15T10:35:58.397Z,19.33
2018-04-15T10:36:58.408Z,19.13
2018-04-15T10:37:58.431Z,18.99
2018-04-15T10:38:58.528Z,18.90
2018-04-15T10:39:58.641Z,18.86
2018-04-15T10:40:58.517Z,18.92
2018-04-15T10:41:58.541Z,19.06
2018-04-15T10:42:58.564Z,19.02
2018-04-15T10:43:58.599Z,19.23
2018-04-15T10:44:58.610Z,19.29
2018-04-15T10:45:58.645Z,19.35
2018-04-15T10:46:58.712Z,19.95
2018-04-15T10:47:58.703Z,20.21
2018-04-15T10:48:58.861Z,20.47
2018-04-15T10:49:58.741Z,20.50
2018-04-15T10:50:58.769Z,20.20
2018-04-15T10:51:58.860Z,19.90
2018-04-15T10:52:58.836Z,19.95
2018-04-15T10:53:58.868Z,20.05
2018-04-15T10:54:58.866Z,20.03
2018-04-15T10:55:58.903Z,20.02
2018-04-15T10:56:59.216Z,20.15
2018-04-15T10:57:58.942Z,20.25
2018-04-15T10:58:58.962Z,20.28
2018-04-15T10:59:59.005Z,20.16
2018-04-15T11:00:59.039Z,20.28
2018-04-15T11:01:59.051Z,20.15
2018-04-15T11:02:59.104Z,20.31
2018-04-15T11:03:59.345Z,20.47
2018-04-15T11:04:59.125Z,20.33
2018-04-15T11:05:59.178Z,20.10
2018-04-15T11:06:59.175Z,19.90
2018-04-15T11:07:59.202Z,19.91
2018-04-15T11:08:59.250Z,20.39
2018-04-15T11:09:59.268Z,20.53
2018-04-15T11:10:59.275Z,20.47
2018-04-15T11:11:59.331Z,20.16
2018-04-15T11:12:59.329Z,20.13
2018-04-15T11:13:59.421Z,20.39
2018-04-15T11:14:59.390Z,20.35
2018-04-15T11:15:59.410Z,20.49
2018-04-15T11:16:59.450Z,20.62
2018-04-15T11:17:59.456Z,20.47
2018-04-15T11:18:59.481Z,20.27
2018-04-15T11:19:59.543Z,20.02
2018-04-15T11:20:59.581Z,20.09
2018-04-15T11:21:59.562Z,20.21
2018-04-15T11:22:59.586Z,20.38
2018-04-15T11:23:59.654Z,20.47
2018-04-15T11:24:59.636Z,20.21
2018-04-15T11:25:59.666Z,20.21
2018-04-15T11:26:59.693Z,20.43
2018-04-15T11:27:59.717Z,20.39
2018-04-15T11:28:59.774Z,20.41
2018-04-15T11:29:59.788Z,20.61
2018-04-15T11:30:59.787Z,20.71
2018-04-15T11:31:59.821Z,20.84
2018-04-15T11:32:59.858Z,20.79
2018-04-15T11:33:59.870Z,20.81
2018-04-15T11:34:59.900Z,21.02
2018-04-15T11:36:00.251Z,20.89
2018-04-15T11:36:59.952Z,21.06
2018-04-15T11:38:00.294Z,21.32
2018-04-15T11:39:00.053Z,21.41
2018-04-15T11:40:00.026Z,21.39
2018-04-15T11:41:00.063Z,21.32
2018-04-15T11:42:00.147Z,21.51
2018-04-15T11:43:00.111Z,21.30
2018-04-15T11:44:00.129Z,21.04
2018-04-15T11:45:00.247Z,20.79
2018-04-15T11:46:00.194Z,20.66
2018-04-15T11:47:00.219Z,20.61
2018-04-15T11:48:00.235Z,20.81
2018-04-15T11:49:00.264Z,20.81
2018-04-15T11:50:00.284Z,21.06
2018-04-15T11:51:00.313Z,21.38
2018-04-15T11:52:00.345Z,21.63
2018-04-15T11:53:00.361Z,21.66
2018-04-15T11:54:00.405Z,21.63
2018-04-15T11:55:00.419Z,21.50
2018-04-15T11:56:00.447Z,21.50
2018-04-15T11:57:00.481Z,21.61
2018-04-15T11:58:00.534Z,21.79
2018-04-15T11:59:00.525Z,21.85
2018-04-15T12:00:00.552Z,21.83
2018-04-15T12:01:00.583Z,21.78
2018-04-15T12:02:00.604Z,21.85
2018-04-15T12:03:00.626Z,21.90
2018-04-15T12:04:00.660Z,21.79
2018-04-15T12:05:00.692Z,21.74
2018-04-15T12:06:00.705Z,22.16
2018-04-15T12:07:00.739Z,22.01
2018-04-15T12:08:00.763Z,21.99
2018-04-15T12:09:00.791Z,21.91
2018-04-15T12:10:00.816Z,21.88
2018-04-15T12:11:00.836Z,21.76
2018-04-15T12:12:00.871Z,21.79
2018-04-15T12:13:00.910Z,21.94
2018-04-15T12:14:00.920Z,21.79
2018-04-15T12:15:00.965Z,21.81
2018-04-15T12:16:00.973Z,21.78
2018-04-15T12:17:01.024Z,21.82
2018-04-15T12:18:01.038Z,21.79
2018-04-15T12:19:01.087Z,21.98
2018-04-15T12:20:01.105Z,22.12
2018-04-15T12:21:01.130Z,21.95
2018-04-15T12:22:01.138Z,22.13
2018-04-15T12:23:01.445Z,22.23
2018-04-15T12:24:01.189Z,22.23
2018-04-15T12:25:01.228Z,22.34
2018-04-15T12:26:01.249Z,22.09
2018-04-15T12:27:01.268Z,21.74
2018-04-15T12:28:01.298Z,21.95
2018-04-15T12:29:01.358Z,22.01
2018-04-15T12:30:01.349Z,22.07
2018-04-15T12:31:01.397Z,21.90
2018-04-15T12:32:01.401Z,21.81
2018-04-15T12:33:01.433Z,21.98
2018-04-15T12:34:01.470Z,21.88
2018-04-15T12:35:01.483Z,21.90
2018-04-15T12:36:01.513Z,22.20
2018-04-15T12:37:01.561Z,22.13
2018-04-15T12:38:01.580Z,22.07
2018-04-15T12:39:01.605Z,21.95
2018-04-15T12:40:01.649Z,22.01
2018-04-15T12:41:01.662Z,21.91
2018-04-15T12:42:01.680Z,21.83
2018-04-15T12:43:01.708Z,21.79
2018-04-15T12:44:01.743Z,21.81
2018-04-15T12:45:01.757Z,21.76
2018-04-15T12:46:01.783Z,21.79
2018-04-15T12:47:01.817Z,21.88
2018-04-15T12:48:01.844Z,21.88
2018-04-15T12:49:01.876Z,21.82
2018-04-15T12:50:01.896Z,21.97
2018-04-15T12:51:01.924Z,22.06
2018-04-15T12:52:01.961Z,21.90
2018-04-15T12:53:01.977Z,21.61
2018-04-15T12:54:02.016Z,21.56
2018-04-15T12:55:02.032Z,21.59
2018-04-15T12:56:02.064Z,21.46
2018-04-15T12:57:02.092Z,21.59
2018-04-15T12:58:02.110Z,21.66
2018-04-15T12:59:02.147Z,21.59
2018-04-15T13:00:02.221Z,21.42
2018-04-15T13:01:02.201Z,21.11
2018-04-15T13:02:02.248Z,21.19
2018-04-15T13:03:02.248Z,21.21
2018-04-15T13:04:02.281Z,21.39
2018-04-15T13:05:02.304Z,21.42
2018-04-15T13:06:02.378Z,21.41
2018-04-15T13:07:02.358Z,21.44
2018-04-15T13:08:02.385Z,21.51
2018-04-15T13:09:02.417Z,21.51
2018-04-15T13:10:02.451Z,21.53
2018-04-15T13:11:02.468Z,21.30
2018-04-15T13:12:02.496Z,21.06
2018-04-15T13:13:02.518Z,21.08
2018-04-15T13:14:02.545Z,21.16
2018-04-15T13:15:02.572Z,21.13
2018-04-15T13:16:02.599Z,20.96
2018-04-15T13:17:02.649Z,20.72
2018-04-15T13:18:02.657Z,20.56
2018-04-15T13:19:02.686Z,20.64
2018-04-15T13:20:02.706Z,20.69
2018-04-15T13:21:02.737Z,21.06
2018-04-15T13:22:02.765Z,20.96
2018-04-15T13:23:02.789Z,20.90
2018-04-15T13:24:02.833Z,20.86
2018-04-15T13:25:02.888Z,21.19
2018-04-15T13:26:02.874Z,21.23
2018-04-15T13:27:02.900Z,21.24
2018-04-15T13:28:02.927Z,21.08
2018-04-15T13:29:02.961Z,21.34
2018-04-15T13:30:02.997Z,21.48
2018-04-15T13:31:03.010Z,21.46
2018-04-15T13:32:03.031Z,21.61
2018-04-15T13:33:03.056Z,21.75
2018-04-15T13:34:03.096Z,21.69
2018-04-15T13:35:03.107Z,21.64
2018-04-15T13:36:03.157Z,21.74
2018-04-15T13:37:03.258Z,21.78
2018-04-15T13:38:03.203Z,21.91
2018-04-15T13:39:03.221Z,21.85
2018-04-15T13:40:03.246Z,21.75
2018-04-15T13:41:03.289Z,21.66
2018-04-15T13:42:03.300Z,21.71
2018-04-15T13:43:03.322Z,21.61
2018-04-15T13:44:03.359Z,21.66
2018-04-15T13:45:03.379Z,21.71
2018-04-15T13:46:03.427Z,21.72
2018-04-15T13:47:03.454Z,21.78
2018-04-15T13:48:03.459Z,21.82
2018-04-15T13:49:03.495Z,21.94
2018-04-15T13:50:03.511Z,21.85
2018-04-15T13:51:03.572Z,21.79